Aitkin, Minnesota
Current Conditions -  °F | °C
As of 1:14 PM on Monday 22 Dec 2014 (Local Time) from KAIT Reporting Station
Unknown Precip Unknown Precip  
Wind Chill: 31°   Ceiling: 600
Heat Index: 37°   Visibility: 3mi
Dew Point: 32°   Wind: 8mph
Humidity: 81%   Direction: 120°ESE
Pressure: 29.59"   Gusts: NA
Location:  46.53°N, 93.71°W
Report Text: KAIT 221914Z AUTO 12007KT 3SM UP OVC006 03/00 A2959 RMK AO2
Loading
Personal Weather Stations






























Interactive Weather Map New forecast layout! Learn more

10-Day Weather Forecast

Advertisements
Track Severe Weather on mobile